sensor_id;sensor_type;location;lat;lon;timestamp;pressure;altitude;pressure_sealevel;temperature;humidity
73103;BME280;61294;65.988;29.172;2023-08-24T00:02:05;98406.03;;;8.11;100.00
73103;BME280;61294;65.988;29.172;2023-08-24T00:04:32;98427.88;;;8.10;100.00
73103;BME280;61294;65.988;29.172;2023-08-24T00:06:59;98377.13;;;7.83;100.00
73103;BME280;61294;65.988;29.172;2023-08-24T00:09:26;98419.09;;;7.99;100.00
73103;BME280;61294;65.988;29.172;2023-08-24T00:11:52;98391.94;;;7.76;100.00
73103;BME280;61294;65.988;29.172;2023-08-24T00:14:19;98412.09;;;7.87;100.00
73103;BME280;61294;65.988;29.172;2023-08-24T00:16:45;98419.09;;;7.91;100.00
73103;BME280;61294;65.988;29.172;2023-08-24T00:19:10;98419.97;;;7.94;100.00
73103;BME280;61294;65.988;29.172;2023-08-24T00:21:36;98417.34;;;7.94;100.00
73103;BME280;61294;65.988;29.172;2023-08-24T00:24:02;98392.84;;;7.83;100.00
73103;BME280;61294;65.988;29.172;2023-08-24T00:26:29;98395.47;;;7.78;100.00
73103;BME280;61294;65.988;29.172;2023-08-24T00:28:54;98420.84;;;7.87;100.00
73103;BME280;61294;65.988;29.172;2023-08-24T00:31:20;98399.81;;;7.72;100.00
73103;BME280;61294;65.988;29.172;2023-08-24T00:33:46;98428.66;;;7.69;100.00
73103;BME280;61294;65.988;29.172;2023-08-24T00:36:12;98430.41;;;7.68;100.00
73103;BME280;61294;65.988;29.172;2023-08-24T00:38:37;98419.03;;;7.68;100.00
73103;BME280;61294;65.988;29.172;2023-08-24T00:41:03;98419.88;;;7.62;100.00
73103;BME280;61294;65.988;29.172;2023-08-24T00:43:29;98404.13;;;7.53;100.00
73103;BME280;61294;65.988;29.172;2023-08-24T00:45:57;98417.25;;;7.60;100.00
73103;BME280;61294;65.988;29.172;2023-08-24T00:48:25;98392.72;;;7.43;100.00
73103;BME280;61294;65.988;29.172;2023-08-24T00:51:00;98396.25;;;7.51;100.00
73103;BME280;61294;65.988;29.172;2023-08-24T00:53:27;98393.59;;;7.47;100.00
73103;BME280;61294;65.988;29.172;2023-08-24T00:55:53;98421.63;;;7.55;100.00
73103;BME280;61294;65.988;29.172;2023-08-24T00:58:20;98422.47;;;7.50;100.00
73103;BME280;61294;65.988;29.172;2023-08-24T01:00:48;98418.94;;;7.48;100.00
73103;BME280;61294;65.988;29.172;2023-08-24T01:03:14;98416.31;;;7.46;100.00
73103;BME280;61294;65.988;29.172;2023-08-24T01:05:40;98423.31;;;7.44;100.00
73103;BME280;61294;65.988;29.172;2023-08-24T01:08:06;98386.56;;;7.30;100.00
73103;BME280;61294;65.988;29.172;2023-08-24T01:10:50;98424.19;;;7.46;100.00
73103;BME280;61294;65.988;29.172;2023-08-24T01:13:30;98422.44;;;7.45;100.00
73103;BME280;61294;65.988;29.172;2023-08-24T01:16:11;98425.88;;;7.36;100.00
73103;BME280;61294;65.988;29.172;2023-08-24T01:18:40;98424.19;;;7.45;100.00
73103;BME280;61294;65.988;29.172;2023-08-24T01:21:08;98411.97;;;7.48;100.00
73103;BME280;61294;65.988;29.172;2023-08-24T01:23:48;98391.81;;;7.30;100.00
73103;BME280;61294;65.988;29.172;2023-08-24T01:26:17;98426.81;;;7.45;100.00
73103;BME280;61294;65.988;29.172;2023-08-24T01:28:45;98423.31;;;7.44;100.00
73103;BME280;61294;65.988;29.172;2023-08-24T01:31:13;98432.06;;;7.48;100.00
73103;BME280;61294;65.988;29.172;2023-08-24T01:33:41;98425.94;;;7.49;100.00
73103;BME280;61294;65.988;29.172;2023-08-24T01:36:08;98404.00;;;7.28;100.00
73103;BME280;61294;65.988;29.172;2023-08-24T01:38:35;98403.13;;;7.23;100.00
73103;BME280;61294;65.988;29.172;2023-08-24T01:41:11;98414.56;;;7.42;100.00
73103;BME280;61294;65.988;29.172;2023-08-24T01:43:40;98427.72;;;7.48;100.00
73103;BME280;61294;65.988;29.172;2023-08-24T01:46:07;98394.44;;;7.30;100.00
73103;BME280;61294;65.988;29.172;2023-08-24T01:48:34;98399.69;;;7.35;100.00
73103;BME280;61294;65.988;29.172;2023-08-24T01:51:01;98425.94;;;7.44;100.00
73103;BME280;61294;65.988;29.172;2023-08-24T01:53:29;98425.09;;;7.48;100.00
73103;BME280;61294;65.988;29.172;2023-08-24T01:55:55;98425.94;;;7.47;100.00
73103;BME280;61294;65.988;29.172;2023-08-24T01:58:21;98422.47;;;7.48;100.00
73103;BME280;61294;65.988;29.172;2023-08-24T02:00:47;98390.06;;;7.29;100.00
73103;BME280;61294;65.988;29.172;2023-08-24T02:03:13;98389.19;;;7.27;100.00
73103;BME280;61294;65.988;29.172;2023-08-24T02:05:38;98424.19;;;7.49;100.00
73103;BME280;61294;65.988;29.172;2023-08-24T02:08:04;98395.28;;;7.28;100.00
73103;BME280;61294;65.988;29.172;2023-08-24T02:10:30;98392.66;;;7.20;100.00
73103;BME280;61294;65.988;29.172;2023-08-24T02:12:56;98402.28;;;7.27;100.00
73103;BME280;61294;65.988;29.172;2023-08-24T02:15:22;98428.56;;;7.46;100.00
73103;BME280;61294;65.988;29.172;2023-08-24T02:17:48;98390.91;;;7.28;100.00
73103;BME280;61294;65.988;29.172;2023-08-24T02:20:14;98420.72;;;7.46;100.00
73103;BME280;61294;65.988;29.172;2023-08-24T02:22:40;98418.09;;;7.46;100.00
73103;BME280;61294;65.988;29.172;2023-08-24T02:25:08;98393.56;;;7.33;100.00
73103;BME280;61294;65.988;29.172;2023-08-24T02:27:33;98398.81;;;7.33;100.00
73103;BME280;61294;65.988;29.172;2023-08-24T02:29:59;98420.69;;;7.42;100.00
73103;BME280;61294;65.988;29.172;2023-08-24T02:32:26;98390.03;;;7.23;100.00
73103;BME280;61294;65.988;29.172;2023-08-24T02:34:51;98420.66;;;7.41;100.00
73103;BME280;61294;65.988;29.172;2023-08-24T02:37:17;98404.91;;;7.30;100.00
73103;BME280;61294;65.988;29.172;2023-08-24T02:39:43;98432.06;;;7.48;100.00
73103;BME280;61294;65.988;29.172;2023-08-24T02:42:09;98403.16;;;7.34;100.00
73103;BME280;61294;65.988;29.172;2023-08-24T02:44:35;98393.56;;;7.33;100.00
73103;BME280;61294;65.988;29.172;2023-08-24T02:47:01;98408.44;;;7.38;100.00
73103;BME280;61294;65.988;29.172;2023-08-24T02:49:26;98408.47;;;7.45;100.00
73103;BME280;61294;65.988;29.172;2023-08-24T02:51:52;98436.47;;;7.59;100.00
73103;BME280;61294;65.988;29.172;2023-08-24T02:54:18;98428.59;;;7.53;100.00
73103;BME280;61294;65.988;29.172;2023-08-24T02:56:44;98423.34;;;7.56;100.00
73103;BME280;61294;65.988;29.172;2023-08-24T02:59:11;98429.47;;;7.55;100.00
73103;BME280;61294;65.988;29.172;2023-08-24T03:01:36;98414.59;;;7.48;100.00
73103;BME280;61294;65.988;29.172;2023-08-24T03:04:04;98435.59;;;7.53;100.00
73103;BME280;61294;65.988;29.172;2023-08-24T03:06:30;98408.44;;;7.40;100.00
73103;BME280;61294;65.988;29.172;2023-08-24T03:08:56;98437.34;;;7.55;100.00
73103;BME280;61294;65.988;29.172;2023-08-24T03:11:22;98429.50;;;7.58;100.00
73103;BME280;61294;65.988;29.172;2023-08-24T03:13:48;98446.09;;;7.64;100.00
73103;BME280;61294;65.988;29.172;2023-08-24T03:16:14;98436.50;;;7.67;100.00
73103;BME280;61294;65.988;29.172;2023-08-24T03:18:40;98443.53;;;7.76;100.00
73103;BME280;61294;65.988;29.172;2023-08-24T03:21:06;98442.66;;;7.83;100.00
73103;BME280;61294;65.988;29.172;2023-08-24T03:23:32;98412.06;;;7.76;100.00
73103;BME280;61294;65.988;29.172;2023-08-24T03:25:58;98412.97;;;7.87;100.00
73103;BME280;61294;65.988;29.172;2023-08-24T03:28:23;98433.97;;;8.06;100.00
73103;BME280;61294;65.988;29.172;2023-08-24T03:30:52;98444.50;;;8.17;100.00
73103;BME280;61294;65.988;29.172;2023-08-24T03:33:18;98426.16;;;8.21;100.00
73103;BME280;61294;65.988;29.172;2023-08-24T03:35:44;98406.03;;;8.19;100.00
73103;BME280;61294;65.988;29.172;2023-08-24T03:38:10;98446.28;;;8.44;100.00
73103;BME280;61294;65.988;29.172;2023-08-24T03:40:36;98426.16;;;8.35;100.00
73103;BME280;61294;65.988;29.172;2023-08-24T03:43:03;98446.34;;;8.59;100.00
73103;BME280;61294;65.988;29.172;2023-08-24T03:45:29;98449.81;;;8.66;100.00
73103;BME280;61294;65.988;29.172;2023-08-24T03:47:55;98449.81;;;8.75;100.00
73103;BME280;61294;65.988;29.172;2023-08-24T03:50:20;98442.81;;;8.76;100.00
73103;BME280;61294;65.988;29.172;2023-08-24T03:52:49;98451.56;;;8.84;100.00
73103;BME280;61294;65.988;29.172;2023-08-24T03:55:15;98427.03;;;8.76;100.00
73103;BME280;61294;65.988;29.172;2023-08-24T03:57:41;98441.03;;;8.96;100.00
73103;BME280;61294;65.988;29.172;2023-08-24T04:00:07;98448.91;;;9.06;100.00
73103;BME280;61294;65.988;29.172;2023-08-24T04:02:37;98419.13;;;8.94;100.00
73103;BME280;61294;65.988;29.172;2023-08-24T04:05:04;98445.34;;;9.19;100.00
73103;BME280;61294;65.988;29.172;2023-08-24T04:07:29;98456.75;;;9.23;100.00
73103;BME280;61294;65.988;29.172;2023-08-24T04:09:56;98432.22;;;9.16;100.00
73103;BME280;61294;65.988;29.172;2023-08-24T04:12:22;98454.97;;;9.34;100.00
73103;BME280;61294;65.988;29.172;2023-08-24T04:14:48;98456.72;;;9.33;100.00
73103;BME280;61294;65.988;29.172;2023-08-24T04:17:14;98449.72;;;9.31;100.00
73103;BME280;61294;65.988;29.172;2023-08-24T04:19:40;98426.09;;;9.20;100.00
73103;BME280;61294;65.988;29.172;2023-08-24T04:22:06;98422.59;;;9.21;100.00
73103;BME280;61294;65.988;29.172;2023-08-24T04:24:31;98432.19;;;9.31;100.00
73103;BME280;61294;65.988;29.172;2023-08-24T04:26:57;98448.78;;;9.49;100.00
73103;BME280;61294;65.988;29.172;2023-08-24T04:29:23;98455.75;;;9.55;100.00
73103;BME280;61294;65.988;29.172;2023-08-24T04:31:49;98454.88;;;9.59;100.00
73103;BME280;61294;65.988;29.172;2023-08-24T04:34:14;98433.88;;;9.49;100.00
73103;BME280;61294;65.988;29.172;2023-08-24T04:36:40;98418.09;;;9.51;100.00
73103;BME280;61294;65.988;29.172;2023-08-24T04:39:06;98454.84;;;9.70;100.00
73103;BME280;61294;65.988;29.172;2023-08-24T04:41:32;98453.94;;;9.77;100.00
73103;BME280;61294;65.988;29.172;2023-08-24T04:43:57;98448.63;;;9.83;100.00
73103;BME280;61294;65.988;29.172;2023-08-24T04:46:23;98451.25;;;9.89;100.00
73103;BME280;61294;65.988;29.172;2023-08-24T04:48:49;98442.44;;;9.95;100.00
73103;BME280;61294;65.988;29.172;2023-08-24T04:51:15;98442.44;;;9.98;100.00
73103;BME280;61294;65.988;29.172;2023-08-24T04:53:40;98446.78;;;10.04;100.00
73103;BME280;61294;65.988;29.172;2023-08-24T04:56:06;98423.13;;;9.96;100.00
73103;BME280;61294;65.988;29.172;2023-08-24T04:58:33;98424.03;;;9.93;100.00
73103;BME280;61294;65.988;29.172;2023-08-24T05:00:59;98418.72;;;10.01;100.00
73103;BME280;61294;65.988;29.172;2023-08-24T05:03:25;98450.19;;;10.21;100.00
73103;BME280;61294;65.988;29.172;2023-08-24T05:05:51;98450.16;;;10.24;100.00
73103;BME280;61294;65.988;29.172;2023-08-24T05:08:17;98443.13;;;10.23;100.00
73103;BME280;61294;65.988;29.172;2023-08-24T05:10:43;98446.59;;;10.31;100.00
73103;BME280;61294;65.988;29.172;2023-08-24T05:13:09;98426.44;;;10.26;100.00
73103;BME280;61294;65.988;29.172;2023-08-24T05:15:35;98419.38;;;10.32;100.00
73103;BME280;61294;65.988;29.172;2023-08-24T05:18:01;98425.53;;;10.36;100.00
73103;BME280;61294;65.988;29.172;2023-08-24T05:20:27;98452.66;;;10.49;100.00
73103;BME280;61294;65.988;29.172;2023-08-24T05:22:53;98455.22;;;10.58;100.00
73103;BME280;61294;65.988;29.172;2023-08-24T05:25:22;98441.09;;;10.65;100.00
73103;BME280;61294;65.988;29.172;2023-08-24T05:27:48;98445.44;;;10.73;100.00
73103;BME280;61294;65.988;29.172;2023-08-24T05:30:14;98437.50;;;10.76;100.00
73103;BME280;61294;65.988;29.172;2023-08-24T05:32:40;98443.53;;;10.88;100.00
73103;BME280;61294;65.988;29.172;2023-08-24T05:35:06;98439.94;;;10.96;100.00
73103;BME280;61294;65.988;29.172;2023-08-24T05:37:33;98445.22;;;10.94;100.00
73103;BME280;61294;65.988;29.172;2023-08-24T05:39:59;98420.78;;;10.80;100.00
73103;BME280;61294;65.988;29.172;2023-08-24T05:42:26;98439.91;;;11.02;100.00
73103;BME280;61294;65.988;29.172;2023-08-24T05:44:52;98445.16;;;11.03;100.00
73103;BME280;61294;65.988;29.172;2023-08-24T05:47:18;98414.44;;;11.01;100.00
73103;BME280;61294;65.988;29.172;2023-08-24T05:49:44;98443.22;;;11.21;100.00
73103;BME280;61294;65.988;29.172;2023-08-24T05:52:09;98437.09;;;11.19;100.00
73103;BME280;61294;65.988;29.172;2023-08-24T05:54:38;98447.56;;;11.27;100.00
73103;BME280;61294;65.988;29.172;2023-08-24T05:57:04;98415.97;;;11.22;100.00
73103;BME280;61294;65.988;29.172;2023-08-24T05:59:31;98390.63;;;11.10;99.50
73103;BME280;61294;65.988;29.172;2023-08-24T06:01:57;98439.53;;;11.37;98.02
73103;BME280;61294;65.988;29.172;2023-08-24T06:04:23;98439.41;;;11.47;97.48
73103;BME280;61294;65.988;29.172;2023-08-24T06:06:49;98435.84;;;11.52;95.79
73103;BME280;61294;65.988;29.172;2023-08-24T06:09:15;98439.41;;;11.48;93.05
73103;BME280;61294;65.988;29.172;2023-08-24T06:11:40;98442.75;;;11.63;93.78
73103;BME280;61294;65.988;29.172;2023-08-24T06:14:06;98440.13;;;11.60;90.69
73103;BME280;61294;65.988;29.172;2023-08-24T06:16:32;98445.28;;;11.70;90.83
73103;BME280;61294;65.988;29.172;2023-08-24T06:18:58;98440.81;;;11.79;88.94
73103;BME280;61294;65.988;29.172;2023-08-24T06:21:24;98448.69;;;11.80;88.69
73103;BME280;61294;65.988;29.172;2023-08-24T06:23:49;98440.53;;;12.00;88.17
73103;BME280;61294;65.988;29.172;2023-08-24T06:26:16;98438.88;;;11.91;84.90
73103;BME280;61294;65.988;29.172;2023-08-24T06:28:42;98443.22;;;11.99;83.12
73103;BME280;61294;65.988;29.172;2023-08-24T06:31:08;98448.19;;;12.20;84.26
73103;BME280;61294;65.988;29.172;2023-08-24T06:33:34;98451.50;;;12.35;83.63
73103;BME280;61294;65.988;29.172;2023-08-24T06:36:02;98448.81;;;12.36;82.06
73103;BME280;61294;65.988;29.172;2023-08-24T06:38:28;98424.06;;;12.43;83.54
73103;BME280;61294;65.988;29.172;2023-08-24T06:40:54;98420.47;;;12.48;81.54
73103;BME280;61294;65.988;29.172;2023-08-24T06:43:20;98448.63;;;12.49;79.13
73103;BME280;61294;65.988;29.172;2023-08-24T06:45:46;98449.41;;;12.55;78.20
73103;BME280;61294;65.988;29.172;2023-08-24T06:48:12;98446.75;;;12.57;75.49
73103;BME280;61294;65.988;29.172;2023-08-24T06:50:38;98440.47;;;12.64;75.17
73103;BME280;61294;65.988;29.172;2023-08-24T06:53:04;98423.19;;;12.43;74.04
73103;BME280;61294;65.988;29.172;2023-08-24T06:55:30;98423.00;;;12.54;75.97
73103;BME280;61294;65.988;29.172;2023-08-24T06:57:56;98454.06;;;12.92;77.14
73103;BME280;61294;65.988;29.172;2023-08-24T07:00:22;98456.47;;;13.06;78.35
73103;BME280;61294;65.988;29.172;2023-08-24T07:02:49;98459.28;;;12.99;73.59
73103;BME280;61294;65.988;29.172;2023-08-24T07:05:16;98456.53;;;13.03;72.22
73103;BME280;61294;65.988;29.172;2023-08-24T07:07:47;98455.69;;;13.00;70.59
73103;BME280;61294;65.988;29.172;2023-08-24T07:10:14;98432.72;;;13.05;71.04
73103;BME280;61294;65.988;29.172;2023-08-24T07:12:40;98448.13;;;13.31;72.10
73103;BME280;61294;65.988;29.172;2023-08-24T07:15:07;98443.53;;;13.41;70.69
73103;BME280;61294;65.988;29.172;2023-08-24T07:17:33;98425.13;;;13.33;68.20
73103;BME280;61294;65.988;29.172;2023-08-24T07:19:59;98456.84;;;13.36;67.30
73103;BME280;61294;65.988;29.172;2023-08-24T07:22:25;98423.50;;;13.26;66.63
73103;BME280;61294;65.988;29.172;2023-08-24T07:24:53;98455.19;;;13.76;69.33
73103;BME280;61294;65.988;29.172;2023-08-24T07:27:20;98446.72;;;14.01;70.63
73103;BME280;61294;65.988;29.172;2023-08-24T07:29:46;98436.09;;;14.02;66.67
73103;BME280;61294;65.988;29.172;2023-08-24T07:32:12;98426.63;;;13.90;65.28
73103;BME280;61294;65.988;29.172;2023-08-24T07:34:37;98422.66;;;14.11;67.65
73103;BME280;61294;65.988;29.172;2023-08-24T07:37:03;98419.53;;;14.31;66.01
73103;BME280;61294;65.988;29.172;2023-08-24T07:39:29;98454.38;;;14.54;65.71
73103;BME280;61294;65.988;29.172;2023-08-24T07:41:55;98441.69;;;14.68;68.04
73103;BME280;61294;65.988;29.172;2023-08-24T07:44:20;98429.88;;;14.80;69.92
73103;BME280;61294;65.988;29.172;2023-08-24T07:46:49;98449.78;;;14.98;65.97
73103;BME280;61294;65.988;29.172;2023-08-24T07:49:15;98449.22;;;14.46;62.65
73103;BME280;61294;65.988;29.172;2023-08-24T07:51:41;98418.06;;;14.56;64.57
73103;BME280;61294;65.988;29.172;2023-08-24T07:54:08;98432.38;;;14.86;63.66
73103;BME280;61294;65.988;29.172;2023-08-24T07:56:34;98436.56;;;14.96;65.34
73103;BME280;61294;65.988;29.172;2023-08-24T07:59:01;98463.53;;;15.12;62.92
73103;BME280;61294;65.988;29.172;2023-08-24T08:01:27;98439.31;;;14.92;62.23
73103;BME280;61294;65.988;29.172;2023-08-24T08:03:53;98438.22;;;14.99;61.20
73103;BME280;61294;65.988;29.172;2023-08-24T08:06:18;98442.06;;;15.22;62.88
73103;BME280;61294;65.988;29.172;2023-08-24T08:08:44;98462.59;;;15.48;63.46
73103;BME280;61294;65.988;29.172;2023-08-24T08:11:12;98462.66;;;15.45;59.67
73103;BME280;61294;65.988;29.172;2023-08-24T08:13:38;98465.94;;;15.54;58.85
73103;BME280;61294;65.988;29.172;2023-08-24T08:16:05;98462.94;;;15.35;60.14
73103;BME280;61294;65.988;29.172;2023-08-24T08:18:32;98463.97;;;15.30;59.15
73103;BME280;61294;65.988;29.172;2023-08-24T08:20:58;98466.72;;;15.58;59.20
73103;BME280;61294;65.988;29.172;2023-08-24T08:23:24;98465.25;;;16.11;62.16
73103;BME280;61294;65.988;29.172;2023-08-24T08:25:49;98444.91;;;15.78;58.97
73103;BME280;61294;65.988;29.172;2023-08-24T08:28:16;98461.09;;;16.02;58.35
73103;BME280;61294;65.988;29.172;2023-08-24T08:30:47;98449.22;;;15.84;56.85
73103;BME280;61294;65.988;29.172;2023-08-24T08:33:13;98465.91;;;16.17;58.04
73103;BME280;61294;65.988;29.172;2023-08-24T08:35:40;98453.66;;;16.13;56.60
73103;BME280;61294;65.988;29.172;2023-08-24T08:38:06;98452.41;;;16.25;56.34
73103;BME280;61294;65.988;29.172;2023-08-24T08:40:36;98482.16;;;16.08;56.74
73103;BME280;61294;65.988;29.172;2023-08-24T08:43:03;98480.34;;;16.38;54.91
73103;BME280;61294;65.988;29.172;2023-08-24T08:45:29;98474.97;;;16.40;54.37
73103;BME280;61294;65.988;29.172;2023-08-24T08:48:00;98472.69;;;16.58;55.86
73103;BME280;61294;65.988;29.172;2023-08-24T08:50:26;98438.31;;;16.78;57.41
73103;BME280;61294;65.988;29.172;2023-08-24T08:52:52;98470.19;;;16.80;53.45
73103;BME280;61294;65.988;29.172;2023-08-24T08:55:19;98474.88;;;17.00;55.61
73103;BME280;61294;65.988;29.172;2023-08-24T08:57:49;98476.69;;;17.50;54.81
73103;BME280;61294;65.988;29.172;2023-08-24T09:00:16;98439.09;;;17.34;52.01
73103;BME280;61294;65.988;29.172;2023-08-24T09:02:43;98476.69;;;18.00;52.27
73103;BME280;61294;65.988;29.172;2023-08-24T09:05:11;98475.28;;;18.14;51.03
73103;BME280;61294;65.988;29.172;2023-08-24T09:07:39;98468.44;;;18.52;50.76
73103;BME280;61294;65.988;29.172;2023-08-24T09:10:06;98471.22;;;17.54;47.51
73103;BME280;61294;65.988;29.172;2023-08-24T09:12:35;98475.00;;;18.21;49.58
73103;BME280;61294;65.988;29.172;2023-08-24T09:15:05;98454.28;;;18.06;48.39
73103;BME280;61294;65.988;29.172;2023-08-24T09:17:34;98449.03;;;18.71;46.35
73103;BME280;61294;65.988;29.172;2023-08-24T09:20:06;98446.88;;;18.58;47.44
73103;BME280;61294;65.988;29.172;2023-08-24T09:22:39;98467.28;;;19.45;46.94
73103;BME280;61294;65.988;29.172;2023-08-24T09:25:09;98461.31;;;19.81;43.77
73103;BME280;61294;65.988;29.172;2023-08-24T09:27:35;98455.97;;;20.38;45.72
73103;BME280;61294;65.988;29.172;2023-08-24T09:30:01;98436.03;;;21.34;44.59
73103;BME280;61294;65.988;29.172;2023-08-24T09:32:30;98458.81;;;21.78;44.11
73103;BME280;61294;65.988;29.172;2023-08-24T09:35:09;98457.22;;;20.86;42.42
73103;BME280;61294;65.988;29.172;2023-08-24T09:37:37;98440.16;;;19.95;41.57
73103;BME280;61294;65.988;29.172;2023-08-24T09:40:04;98471.00;;;20.03;42.50
73103;BME280;61294;65.988;29.172;2023-08-24T09:42:43;98416.91;;;21.42;42.67
73103;BME280;61294;65.988;29.172;2023-08-24T09:45:13;98447.63;;;23.30;42.03
73103;BME280;61294;65.988;29.172;2023-08-24T09:47:39;98433.19;;;24.75;36.33
73103;BME280;61294;65.988;29.172;2023-08-24T09:50:10;98447.38;;;24.91;36.77
73103;BME280;61294;65.988;29.172;2023-08-24T09:52:37;98445.56;;;25.45;36.52
73103;BME280;61294;65.988;29.172;2023-08-24T09:55:08;98449.47;;;26.31;31.68
73103;BME280;61294;65.988;29.172;2023-08-24T09:57:38;98437.41;;;25.19;31.25
73103;BME280;61294;65.988;29.172;2023-08-24T10:00:08;98454.13;;;23.25;32.37
73103;BME280;61294;65.988;29.172;2023-08-24T10:02:54;98450.25;;;22.53;34.53
73103;BME280;61294;65.988;29.172;2023-08-24T10:05:23;98455.06;;;22.30;34.23
73103;BME280;61294;65.988;29.172;2023-08-24T10:07:56;98455.19;;;23.53;35.74
73103;BME280;61294;65.988;29.172;2023-08-24T10:10:25;98465.88;;;24.41;31.07
73103;BME280;61294;65.988;29.172;2023-08-24T10:12:56;98459.41;;;25.13;31.67
73103;BME280;61294;65.988;29.172;2023-08-24T10:15:24;98426.06;;;24.74;30.21
73103;BME280;61294;65.988;29.172;2023-08-24T10:17:52;98451.56;;;23.83;33.20
73103;BME280;61294;65.988;29.172;2023-08-24T10:20:22;98430.19;;;24.38;33.75
73103;BME280;61294;65.988;29.172;2023-08-24T10:22:48;98440.22;;;25.18;34.38
73103;BME280;61294;65.988;29.172;2023-08-24T10:25:16;98425.06;;;25.42;32.94
73103;BME280;61294;65.988;29.172;2023-08-24T10:27:43;98454.06;;;26.42;33.04
73103;BME280;61294;65.988;29.172;2023-08-24T10:30:11;98447.69;;;27.75;30.96
73103;BME280;61294;65.988;29.172;2023-08-24T10:32:39;98428.50;;;28.35;26.29
73103;BME280;61294;65.988;29.172;2023-08-24T10:35:06;98415.16;;;31.14;27.43
73103;BME280;61294;65.988;29.172;2023-08-24T10:37:32;98440.97;;;35.41;22.59
73103;BME280;61294;65.988;29.172;2023-08-24T10:40:00;98440.56;;;36.10;21.94
73103;BME280;61294;65.988;29.172;2023-08-24T10:42:26;98434.75;;;39.18;19.85
73103;BME280;61294;65.988;29.172;2023-08-24T10:44:52;98421.00;;;39.97;18.36
73103;BME280;61294;65.988;29.172;2023-08-24T10:47:20;98423.28;;;41.38;17.68
73103;BME280;61294;65.988;29.172;2023-08-24T10:52:35;98423.41;;;40.97;15.97
73103;BME280;61294;65.988;29.172;2023-08-24T10:55:03;98416.22;;;38.09;15.71
73103;BME280;61294;65.988;29.172;2023-08-24T10:57:36;98410.84;;;38.82;16.43
73103;BME280;61294;65.988;29.172;2023-08-24T11:00:08;98414.38;;;38.98;15.18
73103;BME280;61294;65.988;29.172;2023-08-24T11:05:27;98418.41;;;41.61;14.81
73103;BME280;61294;65.988;29.172;2023-08-24T11:08:07;98412.50;;;43.26;14.59
73103;BME280;61294;65.988;29.172;2023-08-24T11:13:09;98410.09;;;41.34;12.50
73103;BME280;61294;65.988;29.172;2023-08-24T11:15:46;98412.50;;;39.42;13.33
73103;BME280;61294;65.988;29.172;2023-08-24T11:18:14;98410.53;;;42.63;13.37
73103;BME280;61294;65.988;29.172;2023-08-24T11:20:49;98414.09;;;41.18;13.33
73103;BME280;61294;65.988;29.172;2023-08-24T11:23:16;98412.66;;;41.42;13.40
73103;BME280;61294;65.988;29.172;2023-08-24T11:25:42;98410.31;;;41.39;14.78
73103;BME280;61294;65.988;29.172;2023-08-24T11:28:08;98399.22;;;41.19;13.11
73103;BME280;61294;65.988;29.172;2023-08-24T11:30:34;98401.16;;;41.58;14.75
73103;BME280;61294;65.988;29.172;2023-08-24T11:33:01;98396.84;;;42.75;12.63
73103;BME280;61294;65.988;29.172;2023-08-24T11:35:28;98400.72;;;41.95;14.17
73103;BME280;61294;65.988;29.172;2023-08-24T11:37:55;98403.44;;;43.13;12.71
73103;BME280;61294;65.988;29.172;2023-08-24T11:40:22;98401.72;;;43.69;13.68
73103;BME280;61294;65.988;29.172;2023-08-24T11:42:56;98406.53;;;43.23;13.39
73103;BME280;61294;65.988;29.172;2023-08-24T11:45:22;98401.78;;;43.87;13.45
73103;BME280;61294;65.988;29.172;2023-08-24T11:47:52;98395.03;;;44.39;13.03
73103;BME280;61294;65.988;29.172;2023-08-24T11:50:19;98399.75;;;42.87;11.83
73103;BME280;61294;65.988;29.172;2023-08-24T11:52:44;98399.44;;;41.98;12.45
73103;BME280;61294;65.988;29.172;2023-08-24T11:55:11;98387.28;;;41.99;12.79
73103;BME280;61294;65.988;29.172;2023-08-24T11:57:38;98401.03;;;42.39;13.51
73103;BME280;61294;65.988;29.172;2023-08-24T12:00:05;98403.13;;;44.22;14.40
73103;BME280;61294;65.988;29.172;2023-08-24T12:02:31;98402.44;;;41.96;12.79
73103;BME280;61294;65.988;29.172;2023-08-24T12:04:58;98397.75;;;41.70;13.89
73103;BME280;61294;65.988;29.172;2023-08-24T12:07:24;98395.28;;;40.73;12.41
73103;BME280;61294;65.988;29.172;2023-08-24T12:09:52;98397.78;;;41.56;14.07
73103;BME280;61294;65.988;29.172;2023-08-24T12:12:20;98399.84;;;42.73;13.65
73103;BME280;61294;65.988;29.172;2023-08-24T12:14:49;98384.81;;;42.88;12.35
73103;BME280;61294;65.988;29.172;2023-08-24T12:17:16;98388.53;;;42.23;14.10
73103;BME280;61294;65.988;29.172;2023-08-24T12:19:57;98392.94;;;42.83;12.67
73103;BME280;61294;65.988;29.172;2023-08-24T12:22:23;98392.47;;;44.56;12.76
73103;BME280;61294;65.988;29.172;2023-08-24T12:24:49;98401.56;;;44.93;12.57
73103;BME280;61294;65.988;29.172;2023-08-24T12:27:23;98402.00;;;45.09;11.16
73103;BME280;61294;65.988;29.172;2023-08-24T12:29:49;98409.72;;;44.76;12.52
73103;BME280;61294;65.988;29.172;2023-08-24T12:32:17;98405.16;;;44.82;12.06
73103;BME280;61294;65.988;29.172;2023-08-24T12:34:49;98399.72;;;44.38;11.89
73103;BME280;61294;65.988;29.172;2023-08-24T12:37:17;98395.84;;;44.76;11.90
73103;BME280;61294;65.988;29.172;2023-08-24T12:39:43;98393.28;;;43.57;11.27
73103;BME280;61294;65.988;29.172;2023-08-24T12:42:08;98382.97;;;42.23;13.39
73103;BME280;61294;65.988;29.172;2023-08-24T12:44:34;98382.16;;;43.82;13.04
73103;BME280;61294;65.988;29.172;2023-08-24T12:47:02;98388.63;;;41.36;12.14
73103;BME280;61294;65.988;29.172;2023-08-24T12:49:29;98396.78;;;43.20;12.81
73103;BME280;61294;65.988;29.172;2023-08-24T12:51:54;98397.97;;;41.88;11.88
73103;BME280;61294;65.988;29.172;2023-08-24T12:54:20;98391.84;;;42.45;13.22
73103;BME280;61294;65.988;29.172;2023-08-24T12:56:47;98375.59;;;42.55;11.67
73103;BME280;61294;65.988;29.172;2023-08-24T12:59:12;98386.50;;;41.58;11.60